Time;durP1;ratioP1;P1;durP2;ratioP2;P2;SDS_P1;SDS_P2;PMS_P1;PMS_P2;Temp;Humidity;BMP_temperature;BMP_pressure;BME280_temperature;BME280_humidity;BME280_pressure;Samples;Min_cycle;Max_cycle;Signal;HPM_P1;HPM_P2
2022/08/30 00:01:04;;;;;;;2.38;0.60;;;15.90;99.90;;;;;;4987039;28;20441;-77
2022/08/30 00:03:33;;;;;;;2.42;0.60;;;15.90;99.90;;;;;;5003042;28;20049;-79
2022/08/30 00:05:59;;;;;;;5.13;0.77;;;15.80;99.90;;;;;;5005496;28;20517;-79
2022/08/30 00:08:25;;;;;;;1.92;0.50;;;15.80;99.90;;;;;;4992900;28;20045;-78
2022/08/30 00:10:51;;;;;;;1.88;0.60;;;15.80;99.90;;;;;;4988391;28;20038;-78
2022/08/30 00:13:19;;;;;;;1.50;0.50;;;15.80;99.90;;;;;;4987625;28;20063;-78
2022/08/30 00:15:45;;;;;;;1.45;0.50;;;15.70;99.90;;;;;;5000332;28;20030;-79
2022/08/30 00:18:10;;;;;;;2.45;0.70;;;15.70;99.90;;;;;;5002458;28;20101;-80
2022/08/30 00:20:37;;;;;;;3.90;0.60;;;15.80;99.90;;;;;;5004414;28;20103;-78
2022/08/30 00:23:04;;;;;;;2.38;0.70;;;15.70;99.90;;;;;;4998625;28;20101;-80
2022/08/30 00:25:30;;;;;;;2.28;0.52;;;15.70;99.90;;;;;;5004014;28;20049;-79
2022/08/30 00:27:56;;;;;;;2.97;0.63;;;15.70;99.90;;;;;;5005865;28;20486;-80
2022/08/30 00:30:21;;;;;;;2.78;0.60;;;15.60;99.90;;;;;;5004019;28;20029;-80
2022/08/30 00:32:48;;;;;;;1.60;0.60;;;15.60;99.90;;;;;;5007150;28;20022;-80
2022/08/30 00:35:17;;;;;;;1.50;0.63;;;15.60;99.90;;;;;;5005155;28;20029;-80
2022/08/30 00:37:43;;;;;;;1.77;0.60;;;15.50;99.90;;;;;;5006352;28;20438;-77
2022/08/30 00:40:10;;;;;;;1.30;0.40;;;15.50;99.90;;;;;;5019517;28;20449;-77
2022/08/30 00:42:37;;;;;;;2.00;0.60;;;15.50;99.90;;;;;;5004221;28;20120;-80
2022/08/30 00:45:16;;;;;;;3.35;0.60;;;15.40;99.90;;;;;;5003111;28;20029;-80
2022/08/30 00:47:42;;;;;;;2.57;0.60;;;15.40;99.90;;;;;;5002839;28;20093;-78
2022/08/30 00:50:09;;;;;;;3.38;0.65;;;15.40;99.90;;;;;;5001965;28;20514;-77
2022/08/30 00:52:37;;;;;;;2.08;0.60;;;15.40;99.90;;;;;;5006568;28;20140;-77
2022/08/30 00:55:04;;;;;;;1.00;0.50;;;15.30;99.90;;;;;;5002111;28;20080;-77
2022/08/30 00:57:30;;;;;;;2.35;1.00;;;15.30;99.90;;;;;;5002743;28;20033;-78
2022/08/30 00:59:56;;;;;;;2.25;0.60;;;15.30;99.90;;;;;;5003888;28;20030;-77
2022/08/30 01:02:25;;;;;;;1.30;0.50;;;15.30;99.90;;;;;;5020646;28;20041;-77
2022/08/30 01:04:51;;;;;;;1.65;0.60;;;15.30;99.90;;;;;;5006011;28;20065;-78
2022/08/30 01:07:17;;;;;;;1.88;0.60;;;15.20;99.90;;;;;;5011981;28;20053;-77
2022/08/30 01:09:43;;;;;;;2.22;0.70;;;15.20;99.90;;;;;;4990912;28;20141;-78
2022/08/30 01:12:10;;;;;;;1.60;0.60;;;15.20;99.90;;;;;;5004897;28;20408;-76
2022/08/30 01:14:36;;;;;;;1.08;0.50;;;15.20;99.90;;;;;;5006546;28;20359;-77
2022/08/30 01:17:03;;;;;;;2.15;0.80;;;15.20;99.90;;;;;;5003804;28;20390;-78
2022/08/30 01:19:48;;;;;;;1.10;0.60;;;15.10;99.90;;;;;;5003052;28;20360;-77
2022/08/30 01:22:36;;;;;;;1.63;0.50;;;15.20;99.90;;;;;;4999110;28;20101;-77
2022/08/30 01:25:04;;;;;;;4.15;0.70;;;15.10;99.90;;;;;;5000508;28;20123;-77
2022/08/30 01:27:30;;;;;;;2.72;0.88;;;15.10;99.90;;;;;;5002469;28;20038;-78
2022/08/30 01:29:57;;;;;;;2.33;0.90;;;15.10;99.90;;;;;;5003958;28;20022;-77
2022/08/30 01:32:27;;;;;;;1.65;0.68;;;15.00;99.90;;;;;;5003138;28;20482;-77
2022/08/30 01:34:54;;;;;;;1.45;0.73;;;15.00;99.90;;;;;;4992035;28;20022;-77
2022/08/30 01:37:27;;;;;;;1.92;0.70;;;15.00;99.90;;;;;;5003038;28;20044;-76
2022/08/30 01:39:53;;;;;;;2.03;0.82;;;15.10;99.90;;;;;;5005054;28;20037;-79
2022/08/30 01:42:19;;;;;;;1.60;0.75;;;15.00;99.90;;;;;;5024043;28;20029;-78
2022/08/30 01:44:45;;;;;;;1.55;0.60;;;14.90;99.90;;;;;;5025758;28;20100;-79
2022/08/30 01:47:12;;;;;;;1.60;0.60;;;14.90;99.90;;;;;;5021058;28;20128;-78
2022/08/30 01:49:39;;;;;;;2.22;0.73;;;14.90;99.90;;;;;;4987556;28;20201;-78
2022/08/30 01:52:06;;;;;;;1.73;0.55;;;14.90;99.90;;;;;;5005494;28;20122;-77
2022/08/30 01:54:34;;;;;;;2.50;0.80;;;14.90;99.90;;;;;;5005727;28;20021;-76
2022/08/30 01:57:00;;;;;;;1.80;0.60;;;14.80;99.90;;;;;;5023807;28;20021;-76
2022/08/30 01:59:26;;;;;;;2.45;0.88;;;14.80;99.90;;;;;;5023379;28;20022;-78
2022/08/30 02:01:52;;;;;;;2.58;0.98;;;14.90;99.90;;;;;;5006800;28;20056;-77
2022/08/30 02:04:17;;;;;;;1.25;0.52;;;14.80;99.90;;;;;;5006831;28;20414;-77
2022/08/30 02:06:44;;;;;;;3.20;1.77;;;14.70;99.90;;;;;;5001316;28;20140;-76
2022/08/30 02:09:11;;;;;;;2.30;1.00;;;14.70;99.90;;;;;;5005268;28;20041;-76
2022/08/30 02:11:37;;;;;;;3.28;1.20;;;14.70;99.90;;;;;;5025458;28;20025;-77
2022/08/30 02:14:03;;;;;;;1.65;0.93;;;14.70;99.90;;;;;;5023634;28;20048;-76
2022/08/30 02:16:28;;;;;;;2.58;0.95;;;14.60;99.90;;;;;;5026228;28;20506;-77
2022/08/30 02:18:56;;;;;;;1.88;1.08;;;14.70;99.90;;;;;;5023375;28;20022;-77
2022/08/30 02:21:22;;;;;;;2.85;1.20;;;14.60;99.90;;;;;;5021178;28;20527;-78
2022/08/30 02:23:48;;;;;;;2.80;1.20;;;14.60;99.90;;;;;;4987634;28;20029;-76
2022/08/30 02:26:15;;;;;;;3.38;1.15;;;14.60;99.90;;;;;;5007400;28;20040;-76
2022/08/30 02:28:41;;;;;;;2.45;0.80;;;14.60;99.90;;;;;;5004472;28;20132;-77
2022/08/30 02:31:06;;;;;;;1.83;0.75;;;14.50;99.90;;;;;;5022439;28;20087;-76
2022/08/30 02:33:32;;;;;;;1.80;0.90;;;14.60;99.90;;;;;;5023419;28;20033;-77
2022/08/30 02:35:58;;;;;;;2.25;1.30;;;14.50;99.90;;;;;;5009276;28;20025;-75
2022/08/30 02:38:24;;;;;;;3.40;1.10;;;14.50;99.90;;;;;;5026008;28;20528;-76
2022/08/30 02:40:50;;;;;;;2.80;1.08;;;14.50;99.90;;;;;;5000932;28;20077;-76
2022/08/30 02:43:17;;;;;;;2.33;1.27;;;14.50;99.90;;;;;;5002598;28;20034;-77
2022/08/30 02:45:43;;;;;;;2.20;1.70;;;14.50;99.90;;;;;;5002106;28;20038;-77
2022/08/30 02:48:09;;;;;;;2.28;1.30;;;14.40;99.90;;;;;;5002992;28;20045;-78
2022/08/30 02:50:40;;;;;;;1.75;1.17;;;14.40;99.90;;;;;;5000709;28;20129;-77
2022/08/30 02:53:05;;;;;;;2.33;1.20;;;14.40;99.90;;;;;;5007353;28;20030;-76
2022/08/30 02:55:31;;;;;;;1.80;1.08;;;14.40;99.90;;;;;;5004127;28;20033;-77
2022/08/30 02:57:56;;;;;;;1.95;1.42;;;14.40;99.90;;;;;;5008954;28;20033;-77
2022/08/30 03:00:22;;;;;;;1.90;1.27;;;14.40;99.90;;;;;;5022354;28;20026;-76
2022/08/30 03:02:48;;;;;;;1.65;0.77;;;14.40;99.90;;;;;;4997641;28;20402;-76
2022/08/30 03:05:15;;;;;;;1.98;1.00;;;14.40;99.90;;;;;;5006330;28;20017;-76
2022/08/30 03:07:42;;;;;;;3.28;2.65;;;14.30;99.90;;;;;;5010418;28;20045;-76
2022/08/30 03:10:08;;;;;;;3.28;2.63;;;14.30;99.90;;;;;;4988299;28;20045;-76
2022/08/30 03:12:34;;;;;;;2.17;1.67;;;14.30;99.90;;;;;;5004201;28;20125;-79
2022/08/30 03:15:00;;;;;;;5.28;1.88;;;14.30;99.90;;;;;;5005723;28;20514;-78
2022/08/30 03:17:26;;;;;;;3.55;1.80;;;14.30;99.90;;;;;;4985736;28;20513;-77
2022/08/30 03:19:52;;;;;;;3.20;2.78;;;14.20;99.90;;;;;;4990391;28;20026;-76
2022/08/30 03:22:17;;;;;;;2.72;2.20;;;14.20;99.90;;;;;;5004653;28;20034;-77
2022/08/30 03:24:44;;;;;;;2.30;1.42;;;14.20;99.90;;;;;;5005176;28;20026;-76
2022/08/30 03:27:10;;;;;;;4.28;2.72;;;14.20;99.90;;;;;;5016289;28;20029;-78
2022/08/30 03:29:36;;;;;;;2.90;2.15;;;14.20;99.90;;;;;;5004725;28;20413;-79
2022/08/30 03:32:02;;;;;;;3.38;2.20;;;14.20;99.90;;;;;;5006658;28;20034;-76
2022/08/30 03:34:28;;;;;;;2.75;1.92;;;14.20;99.90;;;;;;5007097;28;20026;-80
2022/08/30 03:36:55;;;;;;;2.33;1.75;;;14.10;99.90;;;;;;5005891;28;20036;-79
2022/08/30 03:39:22;;;;;;;2.63;2.05;;;14.10;99.90;;;;;;5005847;28;20070;-77
2022/08/30 03:41:48;;;;;;;3.22;2.22;;;14.10;99.90;;;;;;5004598;28;20074;-76
2022/08/30 03:44:14;;;;;;;2.28;1.58;;;14.10;99.90;;;;;;5004306;28;20300;-77
2022/08/30 03:46:39;;;;;;;2.97;1.50;;;14.00;99.90;;;;;;5006204;28;20138;-76
2022/08/30 03:49:06;;;;;;;2.35;1.70;;;14.00;99.90;;;;;;5006846;28;20479;-80
2022/08/30 03:51:32;;;;;;;2.47;1.90;;;14.00;99.90;;;;;;5007370;28;20037;-77
2022/08/30 03:53:58;;;;;;;3.22;2.22;;;14.10;99.90;;;;;;5005145;28;20029;-79
2022/08/30 03:56:24;;;;;;;3.10;2.08;;;14.10;99.90;;;;;;5003000;28;20133;-77
2022/08/30 03:58:50;;;;;;;3.05;1.77;;;14.00;99.90;;;;;;5003365;28;20100;-77
2022/08/30 04:01:16;;;;;;;2.60;2.40;;;13.90;99.90;;;;;;5006810;28;20466;-77
2022/08/30 04:03:42;;;;;;;2.40;1.70;;;14.00;99.90;;;;;;5005351;28;20038;-78
2022/08/30 04:06:07;;;;;;;1.92;1.45;;;14.00;99.90;;;;;;5007526;28;20080;-77
2022/08/30 04:08:33;;;;;;;2.53;1.83;;;14.00;99.90;;;;;;4987559;28;20045;-77
2022/08/30 04:11:01;;;;;;;2.85;1.77;;;14.00;99.90;;;;;;5005262;28;20034;-79
2022/08/30 04:13:28;;;;;;;2.65;1.92;;;14.00;99.90;;;;;;5005004;28;20033;-76
2022/08/30 04:15:54;;;;;;;2.20;1.80;;;14.10;99.90;;;;;;5004536;28;20429;-77
2022/08/30 04:18:20;;;;;;;1.85;1.23;;;14.00;99.90;;;;;;5005843;28;20163;-79
2022/08/30 04:20:46;;;;;;;2.97;1.98;;;14.10;99.90;;;;;;5004518;28;20038;-80
2022/08/30 04:23:12;;;;;;;2.13;1.50;;;14.00;99.90;;;;;;5006814;28;20045;-80
2022/08/30 04:25:40;;;;;;;2.80;2.45;;;13.90;99.90;;;;;;5004572;28;20129;-77
2022/08/30 04:28:06;;;;;;;2.58;2.00;;;13.90;99.90;;;;;;5004706;28;20045;-79
2022/08/30 04:30:32;;;;;;;2.25;1.98;;;13.90;99.90;;;;;;4999234;28;20023;-77
2022/08/30 04:32:58;;;;;;;3.08;2.60;;;13.80;99.90;;;;;;5005252;28;20162;-77
2022/08/30 04:35:25;;;;;;;4.05;2.33;;;13.80;99.90;;;;;;5006127;28;20116;-78
2022/08/30 04:37:50;;;;;;;2.80;1.63;;;13.80;99.90;;;;;;4999188;28;20034;-77
2022/08/30 04:40:16;;;;;;;4.13;3.00;;;13.70;99.90;;;;;;4997578;28;20056;-78
2022/08/30 04:42:46;;;;;;;3.40;3.10;;;13.70;99.90;;;;;;5004227;28;20025;-76
2022/08/30 04:45:15;;;;;;;3.50;2.65;;;13.70;99.90;;;;;;5005497;28;20084;-77
2022/08/30 04:47:42;;;;;;;3.55;2.65;;;13.70;99.90;;;;;;4987458;28;20068;-78
2022/08/30 04:50:09;;;;;;;5.75;3.47;;;13.70;99.90;;;;;;4995386;28;20030;-76
2022/08/30 04:52:36;;;;;;;3.17;2.65;;;13.60;99.90;;;;;;5003211;28;20077;-78
2022/08/30 04:55:03;;;;;;;2.22;1.95;;;13.70;99.90;;;;;;5005526;28;20030;-77
2022/08/30 04:57:28;;;;;;;3.40;3.10;;;13.70;99.90;;;;;;5002512;28;20065;-78
2022/08/30 04:59:54;;;;;;;3.15;2.85;;;13.60;99.90;;;;;;5007524;28;20061;-76
2022/08/30 05:02:21;;;;;;;2.55;1.40;;;13.60;99.90;;;;;;5003529;28;20029;-77
2022/08/30 05:07:31;;;;;;;4.15;2.53;;;13.60;99.90;;;;;;4999354;28;20489;-77
2022/08/30 05:09:57;;;;;;;3.42;1.80;;;13.70;99.90;;;;;;5005635;28;20018;-80
2022/08/30 05:12:23;;;;;;;2.78;2.17;;;13.70;99.90;;;;;;5004085;28;20437;-76
2022/08/30 05:14:49;;;;;;;2.42;1.75;;;13.70;99.90;;;;;;5011841;28;20065;-76
2022/08/30 05:17:15;;;;;;;3.33;2.28;;;13.70;99.90;;;;;;5002414;28;20038;-75
2022/08/30 05:19:40;;;;;;;2.40;1.70;;;13.80;99.90;;;;;;5004123;28;20474;-76
2022/08/30 05:22:06;;;;;;;2.53;2.17;;;13.80;99.90;;;;;;5000738;28;20052;-75
2022/08/30 05:24:33;;;;;;;5.38;2.60;;;13.70;99.90;;;;;;5002889;28;20033;-76
2022/08/30 05:26:59;;;;;;;4.28;3.25;;;13.80;99.90;;;;;;5002289;28;20413;-77
2022/08/30 05:29:24;;;;;;;2.78;2.33;;;13.80;99.90;;;;;;5001408;28;20029;-76
2022/08/30 05:31:50;;;;;;;3.10;2.80;;;13.80;99.90;;;;;;5002801;28;20018;-77
2022/08/30 05:34:16;;;;;;;7.32;4.20;;;13.80;99.90;;;;;;5002083;28;20033;-76
2022/08/30 05:36:42;;;;;;;3.67;2.28;;;13.90;99.90;;;;;;5003190;28;20512;-76
2022/08/30 05:39:09;;;;;;;2.42;1.75;;;13.90;99.90;;;;;;5002602;28;20032;-76
2022/08/30 05:41:35;;;;;;;2.53;1.52;;;13.90;99.90;;;;;;5018992;28;20053;-75
2022/08/30 05:44:03;;;;;;;2.15;1.50;;;14.10;99.90;;;;;;5024156;28;20108;-80
2022/08/30 05:46:32;;;;;;;2.13;1.40;;;14.10;99.90;;;;;;5004947;28;20175;-79
2022/08/30 05:49:00;;;;;;;2.00;1.40;;;14.10;99.90;;;;;;5025027;28;20394;-76
2022/08/30 05:51:27;;;;;;;3.00;1.60;;;14.20;99.90;;;;;;5023020;28;20033;-76
2022/08/30 05:53:54;;;;;;;1.98;1.35;;;14.30;99.90;;;;;;5022307;28;20061;-74
2022/08/30 05:56:23;;;;;;;1.75;1.33;;;14.30;99.90;;;;;;5024373;28;20032;-77
2022/08/30 05:58:49;;;;;;;1.93;1.20;;;14.30;99.90;;;;;;5022460;28;20030;-78
2022/08/30 06:01:19;;;;;;;1.60;1.17;;;14.40;99.90;;;;;;5004142;28;20457;-75
2022/08/30 06:03:45;;;;;;;;;;;14.40;99.90;;;;;;5021645;28;20076;-77
2022/08/30 06:06:10;;;;;;;3.10;1.00;;;14.50;99.90;;;;;;5020606;28;19909;-78
2022/08/30 06:08:36;;;;;;;2.70;1.27;;;14.50;99.90;;;;;;5022366;28;20041;-77
2022/08/30 06:11:01;;;;;;;3.55;1.58;;;14.60;99.90;;;;;;5021751;28;20026;-77
2022/08/30 06:13:27;;;;;;;3.00;1.20;;;14.60;99.90;;;;;;5023626;28;20036;-75
2022/08/30 06:15:53;;;;;;;2.35;1.20;;;14.70;99.90;;;;;;5021487;28;20123;-75
2022/08/30 06:18:18;;;;;;;1.77;1.17;;;14.80;99.90;;;;;;5002776;28;20513;-76
2022/08/30 06:20:50;;;;;;;3.40;2.15;;;14.90;99.90;;;;;;5002792;28;20394;-79
2022/08/30 06:23:18;;;;;;;2.50;2.30;;;15.00;99.90;;;;;;5002472;28;20087;-80
2022/08/30 06:25:45;;;;;;;3.88;1.77;;;15.10;99.90;;;;;;5021277;28;20029;-76
2022/08/30 06:28:11;;;;;;;2.70;1.77;;;15.20;99.90;;;;;;5004087;28;20041;-77
2022/08/30 06:30:40;;;;;;;2.50;1.70;;;15.30;99.90;;;;;;4995768;28;20029;-76
2022/08/30 06:33:05;;;;;;;1.88;1.38;;;15.40;99.90;;;;;;5006093;28;20044;-76
2022/08/30 06:35:31;;;;;;;2.30;1.42;;;15.60;99.90;;;;;;5026542;28;20033;-79
2022/08/30 06:37:58;;;;;;;3.63;1.20;;;15.80;99.90;;;;;;5021932;28;20029;-75
2022/08/30 06:40:24;;;;;;;1.70;1.02;;;15.90;99.90;;;;;;5008228;28;20046;-75
2022/08/30 06:42:50;;;;;;;2.60;1.17;;;16.00;99.90;;;;;;5029549;28;20087;-76
2022/08/30 06:45:17;;;;;;;3.35;0.70;;;16.10;99.90;;;;;;5012208;28;20033;-77
2022/08/30 06:47:43;;;;;;;1.33;0.75;;;16.30;99.90;;;;;;5025905;28;20428;-78
2022/08/30 06:50:11;;;;;;;1.75;0.90;;;16.50;99.90;;;;;;5007463;28;20037;-76
2022/08/30 06:52:37;;;;;;;1.67;0.57;;;16.60;99.90;;;;;;5026392;28;20436;-75
2022/08/30 06:55:03;;;;;;;1.40;0.70;;;16.80;99.90;;;;;;5026117;28;20030;-76
2022/08/30 06:57:28;;;;;;;1.70;0.80;;;16.90;99.90;;;;;;5025902;28;20041;-78
2022/08/30 06:59:55;;;;;;;1.52;0.70;;;17.00;99.90;;;;;;5026336;28;20022;-81
2022/08/30 07:02:22;;;;;;;3.30;0.70;;;17.20;99.90;;;;;;5025507;28;20162;-76
2022/08/30 07:04:47;;;;;;;1.70;0.70;;;17.30;99.90;;;;;;5026693;28;20029;-76
2022/08/30 07:07:13;;;;;;;2.03;0.50;;;17.50;99.90;;;;;;5009388;28;20033;-77
2022/08/30 07:09:43;;;;;;;1.50;0.60;;;17.70;99.90;;;;;;5025680;28;20034;-76
2022/08/30 07:12:10;;;;;;;2.65;0.70;;;17.70;99.90;;;;;;5026437;28;20044;-78
2022/08/30 07:14:36;;;;;;;2.65;0.65;;;17.90;99.90;;;;;;5024431;28;20363;-77
2022/08/30 07:18:49;;;;;;;2.13;0.52;;;18.10;99.90;;;;;;5025784;28;20087;-77
2022/08/30 07:19:48;;;;;;;0.82;0.30;;;18.20;99.90;;;;;;5006295;28;20383;-76
2022/08/30 07:22:14;;;;;;;1.00;0.40;;;18.30;99.90;;;;;;5006699;28;20033;-77
2022/08/30 07:24:40;;;;;;;2.42;0.40;;;18.40;99.90;;;;;;5023158;28;20402;-77
2022/08/30 07:27:05;;;;;;;0.90;0.40;;;18.50;99.90;;;;;;5024441;28;20398;-77
2022/08/30 07:29:31;;;;;;;0.98;0.30;;;18.50;99.90;;;;;;5024293;28;20524;-75
2022/08/30 07:31:56;;;;;;;0.60;0.25;;;18.70;99.90;;;;;;5025493;28;20033;-76
2022/08/30 07:34:22;;;;;;;1.23;0.30;;;18.90;99.90;;;;;;5024665;28;20110;-77
2022/08/30 07:36:48;;;;;;;1.88;0.40;;;19.00;99.90;;;;;;5024472;28;20569;-77
2022/08/30 07:39:13;;;;;;;2.05;0.40;;;19.00;99.90;;;;;;5025500;28;20053;-77
2022/08/30 07:41:39;;;;;;;1.40;0.30;;;19.10;99.90;;;;;;5024687;28;20508;-77
2022/08/30 07:44:07;;;;;;;1.02;0.30;;;19.30;99.90;;;;;;5024098;28;20017;-77
2022/08/30 07:46:34;;;;;;;1.15;0.30;;;19.40;99.90;;;;;;5025870;28;20474;-81
2022/08/30 07:49:00;;;;;;;2.25;0.30;;;19.60;99.90;;;;;;5023057;28;20046;-80
2022/08/30 07:51:26;;;;;;;0.50;0.20;;;19.70;99.90;;;;;;5025412;28;20025;-81
2022/08/30 07:53:53;;;;;;;0.80;0.20;;;19.90;99.90;;;;;;5024414;28;20044;-81
2022/08/30 07:56:19;;;;;;;0.80;0.20;;;19.70;99.90;;;;;;5024062;28;20083;-78
2022/08/30 07:58:45;;;;;;;1.77;0.30;;;19.70;99.90;;;;;;5025106;28;20386;-77
2022/08/30 08:01:12;;;;;;;1.13;0.20;;;20.00;99.90;;;;;;5026205;28;20485;-78
2022/08/30 08:03:39;;;;;;;0.70;0.20;;;20.10;99.90;;;;;;5026294;28;20053;-77
2022/08/30 08:06:07;;;;;;;1.23;0.20;;;20.50;99.90;;;;;;5007234;28;20410;-76
2022/08/30 08:08:33;;;;;;;1.85;0.30;;;20.40;99.90;;;;;;5025395;28;20041;-77
2022/08/30 08:11:12;;;;;;;0.70;0.20;;;20.40;99.90;;;;;;5004192;28;20128;-81
2022/08/30 08:13:39;;;;;;;0.70;0.20;;;20.30;99.90;;;;;;5003230;28;20393;-83
2022/08/30 08:16:04;;;;;;;0.93;0.10;;;20.50;99.90;;;;;;5028330;28;20044;-78
2022/08/30 08:18:30;;;;;;;1.75;0.20;;;20.60;99.90;;;;;;5003316;28;20479;-77
2022/08/30 08:20:57;;;;;;;3.80;0.30;;;20.50;99.90;;;;;;5025078;28;20025;-78
2022/08/30 08:23:23;;;;;;;0.90;0.20;;;20.40;99.90;;;;;;5022948;28;20080;-82
2022/08/30 08:25:49;;;;;;;1.48;0.20;;;20.50;99.90;;;;;;5025857;28;20116;-81
2022/08/30 08:28:14;;;;;;;0.75;0.15;;;20.90;99.90;;;;;;5024525;28;20493;-76
2022/08/30 08:30:40;;;;;;;0.85;0.20;;;21.00;99.90;;;;;;5007403;28;20470;-78
2022/08/30 08:33:06;;;;;;;0.70;0.10;;;21.10;99.90;;;;;;5024109;28;20026;-77
2022/08/30 08:35:32;;;;;;;0.85;0.20;;;21.20;99.90;;;;;;5006969;28;20116;-80
2022/08/30 08:37:58;;;;;;;0.88;0.10;;;21.10;99.90;;;;;;5006323;28;20214;-78
2022/08/30 08:40:25;;;;;;;1.48;0.20;;;21.20;99.90;;;;;;5023928;28;20472;-77
2022/08/30 08:43:17;;;;;;;0.50;0.10;;;21.30;99.90;;;;;;5024363;28;20112;-79
2022/08/30 08:46:03;;;;;;;0.68;0.15;;;21.20;99.90;;;;;;5023462;28;20371;-78
2022/08/30 08:48:44;;;;;;;1.23;0.20;;;21.20;99.90;;;;;;5008353;28;20117;-80
2022/08/30 08:54:09;;;;;;;0.55;0.10;;;21.70;99.90;;;;;;5022801;28;20026;-79
2022/08/30 08:56:36;;;;;;;0.60;0.10;;;21.70;99.90;;;;;;5023469;28;20077;-77
2022/08/30 08:59:06;;;;;;;0.50;0.10;;;21.80;99.90;;;;;;5025406;28;20018;-77
2022/08/30 09:01:32;;;;;;;1.17;0.20;;;21.80;99.90;;;;;;5010805;28;20032;-77
2022/08/30 09:04:04;;;;;;;1.23;0.20;;;21.80;99.90;;;;;;5025790;28;20032;-79
2022/08/30 09:06:43;;;;;;;0.93;0.15;;;21.90;99.90;;;;;;5023420;28;20029;-76
2022/08/30 09:09:09;;;;;;;0.80;0.20;;;21.90;99.90;;;;;;5023551;28;20044;-78
2022/08/30 09:11:36;;;;;;;0.60;0.10;;;21.80;99.90;;;;;;5024125;28;20029;-77
2022/08/30 09:14:07;;;;;;;0.55;0.10;;;22.30;99.90;;;;;;5024629;28;20432;-76
2022/08/30 09:16:57;;;;;;;0.95;0.20;;;22.40;99.90;;;;;;5023273;28;20169;-78
2022/08/30 09:19:27;;;;;;;;;;;22.30;99.90;;;;;;5022642;28;20034;-81
2022/08/30 09:21:57;;;;;;;1.30;0.20;;;22.60;99.90;;;;;;5021932;28;19909;-81
2022/08/30 09:24:23;;;;;;;1.33;0.10;;;22.80;99.90;;;;;;5022602;28;20025;-80
2022/08/30 09:26:49;;;;;;;1.25;0.20;;;22.50;99.90;;;;;;5022978;28;20448;-79
2022/08/30 09:29:18;;;;;;;2.42;0.20;;;22.40;99.90;;;;;;5023768;28;20041;-77
2022/08/30 09:31:49;;;;;;;1.65;0.20;;;22.50;99.90;;;;;;5005837;28;20032;-80
2022/08/30 09:34:19;;;;;;;0.82;0.10;;;22.40;99.90;;;;;;5021566;28;20390;-78
2022/08/30 09:36:52;;;;;;;0.82;0.17;;;22.50;99.90;;;;;;5025027;28;20021;-80
2022/08/30 09:39:28;;;;;;;0.85;0.20;;;22.50;99.90;;;;;;5020940;28;20478;-80
2022/08/30 09:42:08;;;;;;;0.30;0.10;;;22.70;99.90;;;;;;5004637;28;20041;-76
2022/08/30 09:44:37;;;;;;;2.75;0.20;;;22.70;99.90;;;;;;5025313;28;20030;-77
2022/08/30 09:47:03;;;;;;;0.70;0.20;;;22.90;99.90;;;;;;5025249;28;20060;-76
2022/08/30 09:49:37;;;;;;;0.73;0.10;;;22.80;99.90;;;;;;5024283;28;20296;-78
2022/08/30 09:52:15;;;;;;;0.50;0.10;;;22.90;99.90;;;;;;5024370;28;20033;-79
2022/08/30 09:55:22;;;;;;;0.55;0.10;;;23.10;99.90;;;;;;5005493;28;20548;-78
2022/08/30 09:58:01;;;;;;;2.22;0.20;;;23.20;99.90;;;;;;5010876;28;20521;-81
2022/08/30 10:00:34;;;;;;;0.70;0.10;;;23.40;99.90;;;;;;5023026;28;20029;-80
2022/08/30 10:03:24;;;;;;;0.63;0.15;;;23.20;99.90;;;;;;5019819;28;20029;-79
2022/08/30 10:06:14;;;;;;;0.50;0.10;;;23.30;99.90;;;;;;5022196;28;20049;-79
2022/08/30 10:09:16;;;;;;;0.95;0.10;;;23.40;99.90;;;;;;5003524;28;20555;-78
2022/08/30 10:11:59;;;;;;;0.52;0.10;;;23.60;99.90;;;;;;5024919;28;20033;-77
2022/08/30 10:14:44;;;;;;;1.70;0.15;;;23.50;99.90;;;;;;5022334;28;20033;-77
2022/08/30 10:17:26;;;;;;;0.38;0.10;;;23.90;99.90;;;;;;4999069;28;20029;-78
2022/08/30 10:20:24;;;;;;;1.23;0.10;;;23.90;99.90;;;;;;4997559;28;20078;-76
2022/08/30 10:23:03;;;;;;;0.80;0.17;;;24.00;99.90;;;;;;4973340;28;20604;-79
2022/08/30 10:25:34;;;;;;;3.25;0.20;;;23.80;99.90;;;;;;4999952;28;20071;-77
2022/08/30 10:28:14;;;;;;;0.68;0.20;;;24.30;99.90;;;;;;5016042;28;20393;-77
2022/08/30 10:30:45;;;;;;;0.90;0.10;;;24.20;99.90;;;;;;5014869;28;20052;-78
2022/08/30 10:33:21;;;;;;;0.55;0.10;;;24.30;99.90;;;;;;5016170;28;20546;-80
2022/08/30 10:35:51;;;;;;;1.00;0.28;;;24.40;99.90;;;;;;5016184;28;20053;-82
2022/08/30 10:38:37;;;;;;;0.68;0.20;;;24.00;99.90;;;;;;4998539;28;20524;-78
2022/08/30 10:41:14;;;;;;;1.00;0.10;;;24.30;99.90;;;;;;5013710;28;20133;-78
2022/08/30 10:44:01;;;;;;;0.65;0.10;;;24.10;99.90;;;;;;5016630;28;20414;-78
2022/08/30 10:46:47;;;;;;;0.93;0.10;;;24.40;99.90;;;;;;5015160;28;20486;-82
2022/08/30 10:49:23;;;;;;;0.20;0.10;;;24.30;99.90;;;;;;4998811;28;20623;-80
2022/08/30 10:52:07;;;;;;;1.42;0.13;;;24.50;99.90;;;;;;5016413;28;20075;-80
2022/08/30 10:54:51;;;;;;;0.50;0.10;;;24.70;99.90;;;;;;5016729;28;20393;-78
2022/08/30 10:57:18;;;;;;;1.30;0.17;;;24.80;99.90;;;;;;5017326;28;20052;-77
2022/08/30 10:59:52;;;;;;;0.40;0.10;;;24.70;99.90;;;;;;5013773;28;20044;-78
2022/08/30 11:02:24;;;;;;;0.60;0.10;;;24.60;99.90;;;;;;5016739;28;20398;-78
2022/08/30 11:05:02;;;;;;;0.63;0.13;;;24.50;99.90;;;;;;5014883;28;20781;-78
2022/08/30 11:07:59;;;;;;;1.50;0.10;;;24.90;99.90;;;;;;4997255;28;20033;-76
2022/08/30 11:10:35;;;;;;;2.90;0.10;;;24.90;99.90;;;;;;4995010;28;20030;-76
2022/08/30 11:13:07;;;;;;;1.08;0.20;;;24.90;99.90;;;;;;5015350;28;20123;-77
2022/08/30 11:15:53;;;;;;;0.32;0.10;;;24.80;99.90;;;;;;5019759;28;20022;-78
2022/08/30 11:18:19;;;;;;;0.88;0.20;;;24.80;99.90;;;;;;5020105;28;20473;-78
2022/08/30 11:20:52;;;;;;;2.00;0.15;;;24.70;99.90;;;;;;5020159;28;20024;-81
2022/08/30 11:23:17;;;;;;;2.55;0.20;;;24.70;99.90;;;;;;5020444;28;20025;-82
2022/08/30 11:25:55;;;;;;;0.95;0.10;;;25.00;99.90;;;;;;5018853;28;20029;-80
2022/08/30 11:28:35;;;;;;;0.65;0.10;;;24.90;99.90;;;;;;5020080;28;20049;-80
2022/08/30 11:31:09;;;;;;;0.90;0.10;;;25.30;99.90;;;;;;4998007;28;20033;-77
2022/08/30 11:33:52;;;;;;;1.42;0.10;;;25.30;99.90;;;;;;5016465;28;20145;-79
2022/08/30 11:36:39;;;;;;;1.05;0.20;;;25.20;99.90;;;;;;5015762;28;20104;-77
2022/08/30 11:39:32;;;;;;;0.98;0.10;;;25.20;99.90;;;;;;5000192;28;20446;-75
2022/08/30 11:42:28;;;;;;;0.73;0.13;;;24.90;99.90;;;;;;4980805;28;20050;-77
2022/08/30 11:45:22;;;;;;;0.50;0.10;;;24.80;99.90;;;;;;5000766;28;20395;-79
2022/08/30 11:47:51;;;;;;;0.55;0.10;;;25.10;99.90;;;;;;5016012;28;20092;-81
2022/08/30 11:50:38;;;;;;;0.85;0.10;;;25.50;99.90;;;;;;5016501;28;20018;-77
2022/08/30 11:53:18;;;;;;;0.85;0.10;;;26.10;99.90;;;;;;4998618;28;20064;-80
2022/08/30 11:56:03;;;;;;;;;;;25.80;99.90;;;;;;5000369;28;20061;-77
2022/08/30 11:58:43;;;;;;;2.20;0.17;;;25.40;99.90;;;;;;5001850;28;19909;-80
2022/08/30 12:01:34;;;;;;;1.30;0.20;;;25.40;99.90;;;;;;5019042;28;20252;-79
2022/08/30 12:04:08;;;;;;;0.80;0.10;;;25.30;99.90;;;;;;4992016;28;20034;-80
2022/08/30 12:06:39;;;;;;;0.60;0.20;;;25.50;99.90;;;;;;5017164;28;20097;-79
2022/08/30 12:09:08;;;;;;;1.05;0.20;;;25.30;99.90;;;;;;5018325;28;20087;-77
2022/08/30 12:11:33;;;;;;;0.57;0.10;;;24.70;99.90;;;;;;5019368;28;20127;-76
2022/08/30 12:14:01;;;;;;;1.33;0.30;;;25.20;99.90;;;;;;5000448;28;20478;-77
2022/08/30 12:16:33;;;;;;;1.92;0.20;;;24.90;99.90;;;;;;4999947;28;20030;-79
2022/08/30 12:19:18;;;;;;;0.70;0.15;;;25.10;99.90;;;;;;5019421;28;20183;-80
2022/08/30 12:21:54;;;;;;;0.65;0.10;;;25.30;99.90;;;;;;5001484;28;20041;-80
2022/08/30 12:24:27;;;;;;;1.60;0.20;;;25.60;99.90;;;;;;5016091;28;20478;-77
2022/08/30 12:26:54;;;;;;;0.98;0.20;;;25.20;99.90;;;;;;5015488;28;20022;-78
2022/08/30 12:29:29;;;;;;;1.77;0.20;;;25.10;99.90;;;;;;5001232;28;20095;-76
2022/08/30 12:32:02;;;;;;;1.45;0.10;;;25.00;99.90;;;;;;5017186;28;20466;-75
2022/08/30 12:34:30;;;;;;;0.85;0.13;;;25.30;99.90;;;;;;5017884;28;20030;-77
2022/08/30 12:37:09;;;;;;;0.55;0.10;;;25.60;99.90;;;;;;5017111;28;20033;-78
2022/08/30 12:39:38;;;;;;;1.08;0.20;;;25.60;99.90;;;;;;5017453;28;20041;-79
2022/08/30 12:42:34;;;;;;;0.85;0.15;;;25.10;99.90;;;;;;4999337;28;20141;-80
2022/08/30 12:45:13;;;;;;;1.35;0.30;;;25.20;99.90;;;;;;5016782;28;20044;-78
2022/08/30 12:47:57;;;;;;;1.02;0.20;;;24.90;99.90;;;;;;4998481;28;20037;-80
2022/08/30 12:50:34;;;;;;;0.55;0.10;;;25.10;99.90;;;;;;5015629;28;20308;-81
2022/08/30 12:53:07;;;;;;;0.88;0.20;;;25.30;99.90;;;;;;5013207;28;20037;-80
2022/08/30 12:55:48;;;;;;;1.60;0.22;;;25.10;99.90;;;;;;5017497;28;20045;-79
2022/08/30 12:58:15;;;;;;;0.80;0.15;;;25.10;99.90;;;;;;5018496;28;20068;-77
2022/08/30 13:00:44;;;;;;;0.63;0.10;;;25.40;99.90;;;;;;4998808;28;20079;-77
2022/08/30 13:03:35;;;;;;;2.13;0.10;;;25.40;99.90;;;;;;5016541;28;20084;-77
2022/08/30 13:06:02;;;;;;;0.65;0.13;;;25.50;99.90;;;;;;5016269;28;20564;-76
2022/08/30 13:08:35;;;;;;;0.80;0.10;;;25.30;99.90;;;;;;5016624;28;20065;-77